Time;durP1;ratioP1;P1;durP2;ratioP2;P2;SDS_P1;SDS_P2;PMS_P1;PMS_P2;Temp;Humidity;BMP_temperature;BMP_pressure;BME280_temperature;BME280_humidity;BME280_pressure;Samples;Min_cycle;Max_cycle;Signal;HPM_P1;HPM_P2
2023/12/06 00:01:40;;;;;;;0.98;0.40;;;4.90;99.90;;;;;;4909153;29;20043;-80
2023/12/06 00:04:06;;;;;;;1.08;0.40;;;4.80;99.90;;;;;;4891969;29;20024;-79
2023/12/06 00:06:31;;;;;;;0.85;0.30;;;4.90;99.90;;;;;;4908567;29;20054;-78
2023/12/06 00:08:57;;;;;;;0.32;0.20;;;4.90;99.90;;;;;;4928244;29;20348;-79
2023/12/06 00:11:23;;;;;;;1.10;0.30;;;4.90;99.90;;;;;;4922505;29;20175;-79
2023/12/06 00:14:17;;;;;;;1.13;0.22;;;5.00;99.90;;;;;;4908761;29;20033;-78
2023/12/06 00:16:52;;;;;;;0.80;0.20;;;4.90;99.90;;;;;;4850736;29;20069;-77
2023/12/06 00:19:38;;;;;;;0.50;0.28;;;4.90;99.90;;;;;;4914857;29;20036;-78
2023/12/06 00:22:13;;;;;;;0.63;0.20;;;4.90;99.90;;;;;;4909877;29;20034;-78
2023/12/06 00:24:54;;;;;;;0.88;0.28;;;4.90;99.90;;;;;;4926979;29;20032;-80
2023/12/06 00:27:38;;;;;;;0.88;0.30;;;5.00;99.90;;;;;;4927179;29;20036;-79
2023/12/06 00:30:04;;;;;;;1.65;0.30;;;5.00;99.90;;;;;;4904385;29;20044;-77
2023/12/06 00:32:30;;;;;;;1.13;0.28;;;5.00;99.90;;;;;;4907888;29;20104;-77
2023/12/06 00:35:02;;;;;;;0.55;0.20;;;5.00;99.90;;;;;;4891444;29;20029;-79
2023/12/06 00:37:43;;;;;;;0.70;0.20;;;5.00;99.90;;;;;;4907147;29;20036;-79
2023/12/06 00:40:29;;;;;;;0.43;0.20;;;5.10;99.90;;;;;;4891506;29;20071;-77
2023/12/06 00:43:06;;;;;;;1.23;0.20;;;5.00;99.90;;;;;;4908582;29;20131;-79
2023/12/06 00:45:33;;;;;;;0.55;0.30;;;5.00;99.90;;;;;;4907325;29;20044;-79
2023/12/06 00:48:12;;;;;;;0.65;0.30;;;5.00;99.90;;;;;;4910049;29;20028;-77
2023/12/06 00:50:38;;;;;;;0.63;0.20;;;5.00;99.90;;;;;;4910063;29;20037;-79
2023/12/06 00:53:04;;;;;;;1.73;0.20;;;5.00;99.90;;;;;;4901467;29;20032;-78
2023/12/06 00:55:29;;;;;;;0.68;0.30;;;5.00;99.90;;;;;;4915448;29;20051;-77
2023/12/06 00:57:55;;;;;;;0.80;0.20;;;5.00;99.90;;;;;;4911642;29;20250;-78
2023/12/06 01:00:21;;;;;;;0.40;0.10;;;5.00;99.90;;;;;;4909249;29;20228;-79
2023/12/06 01:03:02;;;;;;;1.17;0.28;;;5.00;99.90;;;;;;4891531;29;20036;-78
2023/12/06 01:05:27;;;;;;;0.50;0.20;;;5.00;99.90;;;;;;4910642;29;20084;-78
2023/12/06 01:07:59;;;;;;;0.50;0.20;;;5.00;99.90;;;;;;4891387;29;20244;-77
2023/12/06 01:10:40;;;;;;;0.57;0.20;;;5.00;99.90;;;;;;4890517;29;20025;-78
2023/12/06 01:13:05;;;;;;;0.68;0.10;;;5.00;99.90;;;;;;4891269;29;20041;-79
2023/12/06 01:15:51;;;;;;;0.95;0.20;;;5.00;99.90;;;;;;4893844;29;20056;-78
2023/12/06 01:18:54;;;;;;;0.88;0.20;;;5.10;99.90;;;;;;4907124;29;20092;-79
2023/12/06 01:21:29;;;;;;;0.60;0.20;;;5.00;99.90;;;;;;4910083;29;20041;-81
2023/12/06 01:23:57;;;;;;;0.40;0.13;;;5.00;99.90;;;;;;4907420;29;20036;-79
2023/12/06 01:26:26;;;;;;;0.30;0.10;;;5.00;99.90;;;;;;4907380;29;20028;-78
2023/12/06 01:29:10;;;;;;;0.50;0.20;;;5.00;99.90;;;;;;4891072;29;20021;-79
2023/12/06 06:30:07;;;;;;;0.50;0.20;;;4.90;99.90;;;;;;5390191;23;20048;-79
2023/12/06 06:32:33;;;;;;;2.30;0.40;;;5.00;99.90;;;;;;4894069;29;20059;-80
2023/12/06 06:34:58;;;;;;;0.73;0.20;;;5.00;99.90;;;;;;4896051;29;20032;-80
2023/12/06 06:37:24;;;;;;;1.13;0.25;;;5.00;99.90;;;;;;4912651;29;20035;-81
2023/12/06 06:39:53;;;;;;;0.75;0.22;;;5.00;99.90;;;;;;4911421;29;20333;-79
2023/12/06 06:42:21;;;;;;;0.88;0.30;;;5.00;99.90;;;;;;4911379;29;20040;-80
2023/12/06 06:44:56;;;;;;;1.17;0.20;;;5.00;99.90;;;;;;4927830;29;20020;-80
2023/12/06 06:47:27;;;;;;;1.45;0.52;;;4.90;99.90;;;;;;4911693;29;20051;-79
2023/12/06 06:50:06;;;;;;;0.52;0.20;;;5.00;99.90;;;;;;4897165;29;20032;-80
2023/12/06 06:52:38;;;;;;;1.15;0.20;;;5.00;99.90;;;;;;4928617;29;20028;-80
2023/12/06 06:55:10;;;;;;;0.95;0.30;;;5.10;99.90;;;;;;4906845;29;20040;-80
2023/12/06 06:57:44;;;;;;;0.57;0.25;;;5.10;99.90;;;;;;4928070;29;20034;-79
2023/12/06 07:00:12;;;;;;;0.95;0.20;;;5.10;99.90;;;;;;4917473;29;20040;-80
2023/12/06 07:02:44;;;;;;;1.00;0.20;;;5.10;99.90;;;;;;4894243;29;20039;-81
2023/12/06 07:05:29;;;;;;;0.82;0.20;;;5.20;99.90;;;;;;4928379;29;20157;-82
2023/12/06 07:08:06;;;;;;;0.73;0.30;;;5.20;99.90;;;;;;4895332;29;20278;-78
2023/12/06 07:11:29;;;;;;;0.90;0.20;;;5.20;99.90;;;;;;4928041;29;20036;-81
2023/12/06 07:14:03;;;;;;;0.88;0.30;;;5.20;99.90;;;;;;4802694;29;20207;-80
2023/12/06 07:16:28;;;;;;;0.70;0.20;;;5.20;99.90;;;;;;4831721;29;20069;-81
2023/12/06 07:18:58;;;;;;;0.80;0.20;;;5.20;99.90;;;;;;4850903;29;20037;-81
2023/12/06 07:21:26;;;;;;;0.95;0.30;;;5.20;99.90;;;;;;4836588;29;20318;-79
2023/12/06 07:24:07;;;;;;;1.98;0.30;;;5.20;99.90;;;;;;4861545;29;20040;-81
2023/12/06 07:26:47;;;;;;;0.75;0.38;;;5.20;99.90;;;;;;4909149;29;20107;-80
2023/12/06 07:29:13;;;;;;;1.40;0.20;;;5.30;99.90;;;;;;4911730;29;20088;-80
2023/12/06 07:31:39;;;;;;;0.85;0.35;;;5.20;99.90;;;;;;4895604;29;20028;-80
2023/12/06 07:34:13;;;;;;;1.15;0.35;;;5.30;99.90;;;;;;4922587;29;20055;-79
2023/12/06 07:36:38;;;;;;;1.13;0.30;;;5.30;99.90;;;;;;4895399;29;20036;-79
2023/12/06 07:39:05;;;;;;;0.90;0.30;;;5.30;99.90;;;;;;4946853;29;20040;-78
2023/12/06 07:41:31;;;;;;;1.45;0.20;;;5.30;99.90;;;;;;4930445;29;20029;-80
2023/12/06 07:44:03;;;;;;;1.95;0.40;;;5.40;99.90;;;;;;4929710;29;20028;-81
2023/12/06 07:46:28;;;;;;;0.93;0.47;;;5.40;99.90;;;;;;4929672;29;20318;-81
2023/12/06 07:48:54;;;;;;;1.83;0.50;;;5.40;99.90;;;;;;4946493;29;20022;-80
2023/12/06 07:51:20;;;;;;;1.80;0.47;;;5.40;99.90;;;;;;4925449;29;20119;-80
2023/12/06 07:53:46;;;;;;;0.70;0.20;;;5.40;99.90;;;;;;4901765;29;20027;-79
2023/12/06 07:56:12;;;;;;;0.82;0.25;;;5.40;99.90;;;;;;4929184;29;20213;-79
2023/12/06 07:58:43;;;;;;;1.83;0.38;;;5.40;99.90;;;;;;4946958;29;20036;-79
2023/12/06 08:01:09;;;;;;;1.00;0.40;;;5.40;99.90;;;;;;4924417;29;20024;-80
2023/12/06 08:03:35;;;;;;;1.27;0.50;;;5.40;99.90;;;;;;4927503;29;20040;-79
2023/12/06 08:06:01;;;;;;;1.33;0.40;;;5.40;99.90;;;;;;4930137;29;20032;-78
2023/12/06 08:08:50;;;;;;;1.42;0.40;;;5.50;99.90;;;;;;4924901;29;20077;-79
2023/12/06 08:11:34;;;;;;;2.88;0.60;;;5.50;99.90;;;;;;4909103;29;20101;-80
2023/12/06 08:17:16;;;;;;;2.47;0.60;;;5.60;99.90;;;;;;4927986;29;20071;-79
2023/12/06 08:19:45;;;;;;;1.60;0.60;;;5.60;99.90;;;;;;4927297;29;20035;-80
2023/12/06 08:22:11;;;;;;;2.53;0.90;;;5.70;99.90;;;;;;4910974;29;20376;-79
2023/12/06 08:24:36;;;;;;;2.08;1.00;;;5.70;99.90;;;;;;4923155;29;20084;-78
2023/12/06 08:27:02;;;;;;;2.70;1.17;;;5.70;99.90;;;;;;4945784;29;20558;-79
2023/12/06 08:29:30;;;;;;;2.67;1.20;;;5.60;99.90;;;;;;4929452;29;20274;-79
2023/12/06 08:31:59;;;;;;;2.45;1.38;;;5.60;99.90;;;;;;4913024;29;20221;-79
2023/12/06 08:34:28;;;;;;;2.55;1.45;;;5.60;99.90;;;;;;4913249;29;20031;-78
2023/12/06 08:37:02;;;;;;;3.13;1.88;;;5.70;99.90;;;;;;4928062;29;20071;-79
2023/12/06 08:39:30;;;;;;;5.05;2.83;;;5.70;99.90;;;;;;4928688;29;20216;-76
2023/12/06 08:41:56;;;;;;;4.82;3.10;;;5.70;99.90;;;;;;4945420;29;20044;-78
2023/12/06 08:44:24;;;;;;;5.63;3.30;;;5.70;99.90;;;;;;4929680;29;20197;-79
2023/12/06 08:47:05;;;;;;;5.57;3.40;;;5.70;99.90;;;;;;4949852;29;20127;-78
2023/12/06 08:49:31;;;;;;;7.13;3.65;;;5.60;99.90;;;;;;4940752;29;20055;-78
2023/12/06 08:51:58;;;;;;;5.15;3.83;;;5.50;99.90;;;;;;4931885;29;20380;-78
2023/12/06 08:54:26;;;;;;;7.18;4.22;;;5.60;99.90;;;;;;4950387;29;20035;-78
2023/12/06 08:56:52;;;;;;;6.55;4.80;;;5.50;99.90;;;;;;4950420;29;20067;-78
2023/12/06 08:59:24;;;;;;;9.05;4.82;;;5.50;99.90;;;;;;4950516;29;20036;-75
2023/12/06 09:01:51;;;;;;;6.25;4.53;;;5.40;99.90;;;;;;4934900;29;20054;-76
2023/12/06 09:04:20;;;;;;;6.18;4.80;;;5.40;99.90;;;;;;4951083;29;20310;-76
2023/12/06 09:06:46;;;;;;;7.55;4.75;;;5.40;99.90;;;;;;4947206;29;20019;-75
2023/12/06 09:09:12;;;;;;;8.25;5.25;;;5.40;99.90;;;;;;4949932;29;20036;-77
2023/12/06 09:11:37;;;;;;;7.18;4.95;;;5.30;99.90;;;;;;4916668;29;20041;-76
2023/12/06 09:14:03;;;;;;;9.02;5.30;;;5.30;99.90;;;;;;4948929;29;20031;-76
2023/12/06 09:16:29;;;;;;;9.95;5.63;;;5.20;99.90;;;;;;4932202;29;20051;-76
2023/12/06 09:18:55;;;;;;;7.25;5.25;;;5.20;99.90;;;;;;4949128;29;20070;-76
2023/12/06 09:21:25;;;;;;;8.52;6.18;;;5.20;99.90;;;;;;4932286;29;20062;-76
2023/12/06 09:23:52;;;;;;;8.68;5.90;;;5.20;99.90;;;;;;4948866;29;20035;-76
2023/12/06 09:26:17;;;;;;;11.55;5.90;;;5.20;99.90;;;;;;4932515;29;20106;-79
2023/12/06 09:28:43;;;;;;;8.82;5.88;;;5.20;99.90;;;;;;4934135;29;20218;-77
2023/12/06 09:31:24;;;;;;;9.50;6.78;;;5.20;99.90;;;;;;4949489;29;20151;-77
2023/12/06 09:33:49;;;;;;;8.80;5.53;;;5.20;99.90;;;;;;4938431;29;20042;-76
2023/12/06 09:36:40;;;;;;;8.70;5.20;;;5.20;99.90;;;;;;4934099;29;20076;-77
2023/12/06 09:39:06;;;;;;;8.70;6.07;;;5.20;99.90;;;;;;4949979;29;20031;-77
2023/12/06 09:41:34;;;;;;;9.63;5.90;;;5.10;99.90;;;;;;4949301;29;20035;-78
2023/12/06 09:44:00;;;;;;;8.77;6.18;;;5.10;99.90;;;;;;4949576;29;20050;-76
2023/12/06 09:46:33;;;;;;;9.55;6.13;;;5.20;99.90;;;;;;4948627;29;20050;-77
2023/12/06 09:49:07;;;;;;;9.20;6.22;;;5.20;99.90;;;;;;4923160;29;20225;-77
2023/12/06 09:51:39;;;;;;;9.43;6.32;;;5.20;99.90;;;;;;4929627;29;20032;-77
2023/12/06 09:54:04;;;;;;;8.65;6.43;;;5.20;99.90;;;;;;4943536;29;20043;-77
2023/12/06 09:56:37;;;;;;;10.25;6.95;;;5.20;99.90;;;;;;4948605;29;20212;-77
2023/12/06 09:59:02;;;;;;;8.20;5.80;;;5.30;99.90;;;;;;4931626;29;20083;-74
2023/12/06 10:01:28;;;;;;;9.10;5.75;;;5.20;99.90;;;;;;4948811;29;20036;-78
2023/12/06 10:03:54;;;;;;;8.23;5.43;;;5.20;99.90;;;;;;4946399;29;20017;-78
2023/12/06 10:06:19;;;;;;;9.35;6.03;;;5.20;99.90;;;;;;4939120;29;20031;-77
2023/12/06 10:08:53;;;;;;;9.38;6.28;;;5.20;99.90;;;;;;4934953;29;20246;-77
2023/12/06 10:11:31;;;;;;;10.23;6.30;;;5.20;99.90;;;;;;4944883;29;20039;-76
2023/12/06 10:14:19;;;;;;;9.48;6.05;;;5.20;99.90;;;;;;4929549;29;20046;-75
2023/12/06 10:16:48;;;;;;;8.32;5.85;;;5.30;99.90;;;;;;4926013;29;20042;-76
2023/12/06 10:19:26;;;;;;;8.48;5.93;;;5.30;99.90;;;;;;4948963;29;20332;-75
2023/12/06 10:21:53;;;;;;;9.43;6.30;;;5.30;99.90;;;;;;4947856;29;20020;-77
2023/12/06 10:24:18;;;;;;;9.35;6.32;;;5.20;99.90;;;;;;4915343;29;20054;-75
2023/12/06 10:26:46;;;;;;;8.98;6.15;;;5.20;99.90;;;;;;4948090;29;20043;-77
2023/12/06 10:29:14;;;;;;;9.38;6.30;;;5.20;99.90;;;;;;4929879;29;20086;-76
2023/12/06 10:31:45;;;;;;;10.60;6.90;;;5.20;99.90;;;;;;4913026;29;20369;-75
2023/12/06 10:34:31;;;;;;;10.82;6.63;;;5.30;99.90;;;;;;4948016;29;20034;-76
2023/12/06 10:36:59;;;;;;;8.50;5.78;;;5.20;99.90;;;;;;4906552;29;20047;-76
2023/12/06 10:39:32;;;;;;;8.63;6.28;;;5.20;99.90;;;;;;4915629;29;20038;-75
2023/12/06 10:42:01;;;;;;;10.25;6.38;;;5.20;99.90;;;;;;4916246;29;20332;-77
2023/12/06 10:44:27;;;;;;;7.95;5.63;;;5.30;99.90;;;;;;4914700;29;20098;-76
2023/12/06 10:46:54;;;;;;;8.55;5.75;;;5.30;99.90;;;;;;4947342;29;20038;-76
2023/12/06 10:49:20;;;;;;;9.10;6.25;;;5.30;99.90;;;;;;4944975;29;20103;-75
2023/12/06 10:51:48;;;;;;;8.50;5.70;;;5.30;99.90;;;;;;4938824;29;20317;-76
2023/12/06 10:54:15;;;;;;;8.05;5.35;;;5.40;99.90;;;;;;4928053;29;20023;-75
2023/12/06 10:56:42;;;;;;;8.07;5.38;;;5.40;99.90;;;;;;4943025;29;20031;-75
2023/12/06 10:59:10;;;;;;;9.10;5.53;;;5.40;99.90;;;;;;4946257;29;20040;-76
2023/12/06 11:01:54;;;;;;;8.57;5.75;;;5.40;99.90;;;;;;4947030;29;20027;-74
2023/12/06 11:04:52;;;;;;;8.27;5.40;;;5.40;99.90;;;;;;4947063;29;20217;-77
2023/12/06 11:07:37;;;;;;;7.20;4.78;;;5.40;99.90;;;;;;4894123;29;20059;-75
2023/12/06 11:10:21;;;;;;;7.53;4.93;;;5.40;99.90;;;;;;4929173;29;20035;-75
2023/12/06 11:13:28;;;;;;;7.72;5.15;;;5.40;99.90;;;;;;4929766;29;20023;-75
2023/12/06 11:16:32;;;;;;;7.80;4.80;;;5.40;99.90;;;;;;4946636;29;20335;-76
2023/12/06 11:19:02;;;;;;;7.18;4.80;;;5.50;99.90;;;;;;4833826;29;20218;-76
2023/12/06 11:21:28;;;;;;;7.05;5.03;;;5.50;99.90;;;;;;4910659;29;20330;-76
2023/12/06 11:23:57;;;;;;;8.20;4.70;;;5.50;99.90;;;;;;4926895;29;20032;-77
2023/12/06 11:26:23;;;;;;;8.25;5.25;;;5.60;99.90;;;;;;4910822;29;20016;-76
2023/12/06 11:28:53;;;;;;;7.47;4.85;;;5.60;99.90;;;;;;4927565;29;20035;-75
2023/12/06 11:31:19;;;;;;;8.32;5.03;;;5.60;99.90;;;;;;4928805;29;20373;-76
2023/12/06 11:33:55;;;;;;;6.60;4.50;;;5.60;99.90;;;;;;4927871;29;20036;-77
2023/12/06 11:36:24;;;;;;;7.75;4.75;;;5.40;99.90;;;;;;4930621;29;20032;-75
2023/12/06 11:38:49;;;;;;;8.32;5.18;;;5.30;99.90;;;;;;4945322;29;20044;-76
2023/12/06 11:41:16;;;;;;;6.85;4.70;;;5.30;99.90;;;;;;4946241;29;20032;-77
2023/12/06 11:43:52;;;;;;;7.32;5.03;;;5.30;99.90;;;;;;4946509;29;20102;-76
2023/12/06 11:46:28;;;;;;;8.25;4.88;;;5.40;99.90;;;;;;4926644;29;20039;-75
2023/12/06 11:48:58;;;;;;;7.60;5.10;;;5.30;99.90;;;;;;4937607;29;20039;-77
2023/12/06 11:51:28;;;;;;;8.10;5.63;;;5.30;99.90;;;;;;4927215;29;20043;-76
2023/12/06 11:53:58;;;;;;;8.38;4.80;;;5.40;99.90;;;;;;4940075;29;20011;-76
2023/12/06 11:56:29;;;;;;;9.57;5.35;;;5.30;99.90;;;;;;4945934;29;20059;-76
2023/12/06 11:58:58;;;;;;;8.50;5.57;;;5.20;99.90;;;;;;4946313;29;20209;-75
2023/12/06 12:01:25;;;;;;;8.50;5.10;;;5.30;99.90;;;;;;4945658;29;20046;-75
2023/12/06 12:03:51;;;;;;;6.95;5.38;;;5.30;99.90;;;;;;4945921;29;20036;-77
2023/12/06 12:06:17;;;;;;;7.05;5.05;;;5.30;99.90;;;;;;4929092;29;20087;-76
2023/12/06 12:08:43;;;;;;;7.22;5.07;;;5.20;99.90;;;;;;4945869;29;20217;-76
2023/12/06 12:11:10;;;;;;;7.72;5.20;;;5.20;99.90;;;;;;4928518;29;20039;-78
2023/12/06 12:13:37;;;;;;;7.72;5.03;;;5.20;99.90;;;;;;4938932;29;20032;-77
2023/12/06 12:16:04;;;;;;;7.88;4.90;;;5.30;99.90;;;;;;4918632;29;20320;-77
2023/12/06 12:18:37;;;;;;;7.78;4.93;;;5.30;99.90;;;;;;4947199;29;20043;-81
2023/12/06 12:21:18;;;;;;;8.57;4.80;;;5.20;99.90;;;;;;4931660;29;20254;-77
2023/12/06 12:23:48;;;;;;;7.20;5.00;;;5.20;99.90;;;;;;4926808;29;20035;-75
2023/12/06 12:26:17;;;;;;;9.52;5.55;;;5.20;99.90;;;;;;4926806;29;20051;-74
2023/12/06 12:28:43;;;;;;;10.57;4.55;;;5.20;99.90;;;;;;4909909;29;20102;-76
2023/12/06 12:31:16;;;;;;;10.95;5.32;;;5.30;99.90;;;;;;4925895;29;20072;-76
2023/12/06 12:33:48;;;;;;;8.27;5.32;;;5.30;99.90;;;;;;4926691;29;20036;-78
2023/12/06 12:36:16;;;;;;;7.30;4.50;;;5.30;99.90;;;;;;4894056;29;20051;-77
2023/12/06 12:38:43;;;;;;;7.32;5.50;;;5.40;99.90;;;;;;4904135;29;20032;-76
2023/12/06 12:41:09;;;;;;;8.82;5.63;;;5.40;99.90;;;;;;4932142;29;20038;-79
2023/12/06 12:43:35;;;;;;;8.57;5.78;;;5.40;99.90;;;;;;4945741;29;20038;-78
2023/12/06 12:46:02;;;;;;;8.50;5.57;;;5.40;99.90;;;;;;4945095;29;20031;-77
2023/12/06 12:48:32;;;;;;;9.15;5.28;;;5.50;99.90;;;;;;4929652;29;20024;-77
2023/12/06 12:51:12;;;;;;;7.45;4.82;;;5.50;99.90;;;;;;4913282;29;20107;-77
2023/12/06 12:53:40;;;;;;;8.60;5.10;;;5.50;99.90;;;;;;4926937;29;20091;-77
2023/12/06 12:56:09;;;;;;;6.65;4.75;;;5.60;99.90;;;;;;4933769;29;20047;-76
2023/12/06 12:58:38;;;;;;;6.30;4.60;;;5.60;99.90;;;;;;4928465;29;20040;-76
2023/12/06 13:01:03;;;;;;;8.48;5.00;;;5.60;99.90;;;;;;4944445;29;20086;-76
2023/12/06 13:03:31;;;;;;;7.93;5.68;;;5.50;99.90;;;;;;4944854;29;20032;-75
2023/12/06 13:05:59;;;;;;;7.07;5.00;;;5.50;99.90;;;;;;4945296;29;20040;-75
2023/12/06 13:08:31;;;;;;;8.07;5.10;;;5.40;99.90;;;;;;4944889;29;20028;-76
2023/12/06 13:10:58;;;;;;;8.18;4.95;;;5.40;99.90;;;;;;4945235;29;20074;-76
2023/12/06 13:13:25;;;;;;;9.95;5.07;;;5.40;99.90;;;;;;4945169;29;20074;-76
2023/12/06 13:15:52;;;;;;;7.63;4.68;;;5.40;99.90;;;;;;4928224;29;20312;-76
2023/12/06 13:18:18;;;;;;;7.25;4.50;;;5.50;99.90;;;;;;4927855;29;20217;-76
2023/12/06 13:20:45;;;;;;;8.68;4.70;;;5.50;99.90;;;;;;4945087;29;20039;-76
2023/12/06 13:23:10;;;;;;;8.27;4.85;;;5.40;99.90;;;;;;4928908;29;20024;-76
2023/12/06 13:25:36;;;;;;;11.05;5.15;;;5.40;99.90;;;;;;4909152;29;20155;-76
2023/12/06 13:28:05;;;;;;;6.38;4.60;;;5.50;99.90;;;;;;4925398;29;20028;-76
2023/12/06 13:30:42;;;;;;;7.72;4.53;;;5.50;99.90;;;;;;4937252;29;20062;-76
2023/12/06 13:33:07;;;;;;;8.13;4.97;;;5.50;99.90;;;;;;4930415;29;20039;-76
2023/12/06 13:35:36;;;;;;;8.10;5.05;;;5.50;99.90;;;;;;4948440;29;20087;-75
2023/12/06 13:38:05;;;;;;;7.15;4.40;;;5.50;99.90;;;;;;4941857;29;20019;-76
2023/12/06 13:40:34;;;;;;;7.13;4.68;;;5.40;99.90;;;;;;4930820;29;20031;-75
2023/12/06 13:43:00;;;;;;;8.75;4.78;;;5.40;99.90;;;;;;4930597;29;20241;-76
2023/12/06 13:45:26;;;;;;;8.55;5.32;;;5.50;99.90;;;;;;4930528;29;20016;-76
2023/12/06 13:47:52;;;;;;;8.38;4.78;;;5.40;99.90;;;;;;4947716;29;20043;-76
2023/12/06 13:50:17;;;;;;;8.68;4.80;;;5.50;99.90;;;;;;4947491;29;20317;-76
2023/12/06 13:52:43;;;;;;;8.40;4.88;;;5.60;99.90;;;;;;4948008;29;20270;-76
2023/12/06 13:55:09;;;;;;;8.18;4.68;;;5.60;99.90;;;;;;4921754;29;20317;-77
2023/12/06 13:57:34;;;;;;;7.60;4.25;;;5.60;99.90;;;;;;4928833;29;20285;-76
2023/12/06 14:00:00;;;;;;;9.50;4.97;;;5.60;99.90;;;;;;4947826;29;20312;-77
2023/12/06 14:02:26;;;;;;;7.60;4.72;;;5.60;99.90;;;;;;4947049;29;20284;-75
2023/12/06 14:04:51;;;;;;;6.90;4.53;;;5.60;99.90;;;;;;4930967;29;20044;-77
2023/12/06 14:07:20;;;;;;;8.05;5.07;;;5.50;99.90;;;;;;4947327;29;20027;-74
2023/12/06 14:09:46;;;;;;;8.18;4.75;;;5.40;99.90;;;;;;4947884;29;20094;-76
2023/12/06 14:12:11;;;;;;;5.80;4.07;;;5.30;99.90;;;;;;4926416;29;20358;-76
2023/12/06 14:14:38;;;;;;;7.38;4.78;;;5.40;99.90;;;;;;4912430;29;20020;-76
2023/12/06 14:17:05;;;;;;;7.05;4.55;;;5.40;99.90;;;;;;4928354;29;20046;-77
2023/12/06 14:19:31;;;;;;;7.72;4.75;;;5.50;99.90;;;;;;4934376;29;20047;-76
2023/12/06 14:21:56;;;;;;;7.22;4.55;;;5.30;99.90;;;;;;4935348;29;20019;-75
2023/12/06 14:24:22;;;;;;;9.30;5.22;;;5.40;99.90;;;;;;4937395;29;20099;-76
2023/12/06 14:26:48;;;;;;;7.72;4.72;;;5.30;99.90;;;;;;4942404;29;20055;-76
2023/12/06 14:29:15;;;;;;;7.18;4.82;;;5.30;99.90;;;;;;4938480;29;20282;-77
2023/12/06 14:31:43;;;;;;;8.02;4.47;;;5.30;99.90;;;;;;4928742;29;20054;-76
2023/12/06 14:34:11;;;;;;;9.40;4.95;;;5.20;99.90;;;;;;4928193;29;20059;-80
2023/12/06 14:36:39;;;;;;;7.15;4.93;;;5.20;99.90;;;;;;4928111;29;20031;-78
2023/12/06 14:39:05;;;;;;;10.65;5.50;;;5.10;99.90;;;;;;4928329;29;20221;-77
2023/12/06 14:41:59;;;;;;;10.93;5.85;;;5.10;99.90;;;;;;4928298;29;20070;-77
2023/12/06 14:44:46;;;;;;;7.97;4.75;;;5.10;99.90;;;;;;4895014;29;20111;-76
2023/12/06 14:47:12;;;;;;;7.67;5.23;;;5.10;99.90;;;;;;4930592;29;20019;-77
2023/12/06 14:49:40;;;;;;;6.28;4.38;;;5.10;99.90;;;;;;4941168;29;20515;-78
2023/12/06 14:52:06;;;;;;;;;;;5.10;99.90;;;;;;4947474;29;20073;-77
2023/12/06 14:54:33;;;;;;;7.95;4.85;;;5.10;99.90;;;;;;4929936;29;20062;-77
2023/12/06 15:00:18;;;;;;;6.60;4.35;;;5.10;99.90;;;;;;4927176;29;20035;-77
2023/12/06 15:03:09;;;;;;;7.97;5.13;;;5.10;99.90;;;;;;4914159;29;20032;-78
2023/12/06 15:05:37;;;;;;;7.03;4.57;;;5.10;99.90;;;;;;4927617;29;20028;-76
2023/12/06 15:08:06;;;;;;;8.07;4.93;;;5.10;99.90;;;;;;4926624;29;20100;-76
2023/12/06 15:10:32;;;;;;;7.30;4.68;;;5.10;99.90;;;;;;4927434;29;20091;-76
2023/12/06 15:13:00;;;;;;;8.85;5.00;;;5.00;99.90;;;;;;4927626;29;20039;-78
2023/12/06 15:15:26;;;;;;;7.53;5.00;;;5.00;99.90;;;;;;4929832;29;20039;-77
2023/12/06 15:18:15;;;;;;;8.48;5.03;;;5.00;99.90;;;;;;4910825;29;20136;-75
2023/12/06 15:21:05;;;;;;;9.32;5.15;;;5.00;99.90;;;;;;4892930;29;20043;-76
2023/12/06 15:23:33;;;;;;;9.35;5.47;;;5.00;99.90;;;;;;4910258;29;20330;-77
2023/12/06 15:26:05;;;;;;;10.05;5.20;;;5.00;99.90;;;;;;4927324;29;20106;-76
2023/12/06 15:28:35;;;;;;;8.60;5.38;;;5.00;99.90;;;;;;4894501;29;20039;-76
2023/12/06 15:31:01;;;;;;;7.72;5.13;;;5.00;99.90;;;;;;4909386;29;20072;-76
2023/12/06 15:33:26;;;;;;;7.55;4.88;;;5.00;99.90;;;;;;4907433;29;20338;-77
2023/12/06 15:35:52;;;;;;;8.77;4.75;;;5.00;99.90;;;;;;4907112;29;20195;-78
2023/12/06 15:38:18;;;;;;;8.50;5.20;;;4.90;99.90;;;;;;4919338;29;20230;-77
2023/12/06 15:40:43;;;;;;;7.25;4.70;;;4.90;99.90;;;;;;4925523;29;20060;-76
2023/12/06 15:43:23;;;;;;;8.57;5.57;;;4.90;99.90;;;;;;4926521;29;20024;-76
2023/12/06 15:45:58;;;;;;;8.93;5.32;;;4.90;99.90;;;;;;4926000;29;20036;-76
2023/12/06 15:48:24;;;;;;;9.32;5.38;;;4.90;99.90;;;;;;4922135;29;20334;-76
2023/12/06 15:50:50;;;;;;;10.82;5.25;;;4.90;99.90;;;;;;4906445;29;20092;-77
2023/12/06 15:53:16;;;;;;;8.32;5.30;;;4.90;99.90;;;;;;4906725;29;20044;-77
2023/12/06 15:55:42;;;;;;;7.45;5.05;;;4.80;99.90;;;;;;4906431;29;20071;-78
2023/12/06 15:58:13;;;;;;;9.55;5.68;;;4.80;99.90;;;;;;4911896;29;20318;-76
2023/12/06 16:00:43;;;;;;;8.65;5.25;;;4.80;99.90;;;;;;4924120;29;20056;-76
2023/12/06 16:03:12;;;;;;;9.77;5.70;;;4.80;99.90;;;;;;4909620;29;20039;-76
2023/12/06 16:05:37;;;;;;;8.45;5.50;;;4.80;99.90;;;;;;4918046;29;20021;-76
2023/12/06 16:08:03;;;;;;;8.70;5.50;;;4.80;99.90;;;;;;4907804;29;20325;-77
2023/12/06 16:10:29;;;;;;;7.72;5.47;;;4.80;99.90;;;;;;4906936;29;20025;-76
2023/12/06 16:12:55;;;;;;;8.32;5.60;;;4.70;99.90;;;;;;4916874;29;20222;-76
2023/12/06 16:15:22;;;;;;;10.18;5.88;;;4.80;99.90;;;;;;4905563;29;20036;-76
2023/12/06 16:17:48;;;;;;;8.95;6.00;;;4.80;99.90;;;;;;4909741;29;20107;-78
2023/12/06 16:20:20;;;;;;;9.45;5.68;;;4.80;99.90;;;;;;4925107;29;20043;-78
2023/12/06 16:22:46;;;;;;;9.05;5.38;;;4.80;99.90;;;;;;4909471;29;20020;-78
2023/12/06 16:25:14;;;;;;;8.82;5.60;;;4.80;99.90;;;;;;4925787;29;20306;-78
2023/12/06 16:27:40;;;;;;;9.98;6.38;;;4.80;99.90;;;;;;4925995;29;20087;-77
2023/12/06 16:30:09;;;;;;;9.38;5.80;;;4.80;99.90;;;;;;4924941;29;20056;-77
2023/12/06 16:32:47;;;;;;;10.18;7.18;;;4.80;99.90;;;;;;4925533;29;20106;-77
2023/12/06 16:35:13;;;;;;;10.35;5.85;;;4.80;99.90;;;;;;4924336;29;20040;-77
2023/12/06 16:37:42;;;;;;;10.13;6.05;;;4.80;99.90;;;;;;4926497;29;20036;-77
2023/12/06 16:40:08;;;;;;;9.57;5.70;;;4.80;99.90;;;;;;4924990;29;20044;-78
2023/12/06 16:42:34;;;;;;;10.50;6.18;;;4.80;99.90;;;;;;4918259;29;20020;-77
2023/12/06 16:45:05;;;;;;;10.75;6.55;;;4.80;99.90;;;;;;4907438;29;20037;-78
2023/12/06 16:47:31;;;;;;;10.55;6.32;;;4.80;99.90;;;;;;4906889;29;20032;-78
2023/12/06 16:50:09;;;;;;;10.35;6.05;;;4.80;99.90;;;;;;4907238;29;20133;-78
2023/12/06 16:52:38;;;;;;;9.73;6.53;;;4.80;99.90;;;;;;4905786;29;20226;-79
2023/12/06 16:55:07;;;;;;;10.50;6.93;;;4.80;99.90;;;;;;4907263;29;20063;-79
2023/12/06 16:57:33;;;;;;;10.50;6.38;;;4.80;99.90;;;;;;4905519;29;20023;-78
2023/12/06 16:59:58;;;;;;;11.52;6.15;;;4.80;99.90;;;;;;4911681;29;20036;-78
2023/12/06 17:02:24;;;;;;;9.43;5.97;;;4.80;99.90;;;;;;4906721;29;20036;-78
2023/12/06 17:04:52;;;;;;;9.50;6.07;;;4.80;99.90;;;;;;4907416;29;20051;-79
2023/12/06 17:07:18;;;;;;;;;;;4.80;99.90;;;;;;4910647;29;20036;-77
2023/12/06 17:09:46;;;;;;;11.40;6.78;;;4.80;99.90;;;;;;4909675;29;20197;-77
2023/12/06 17:12:16;;;;;;;10.30;6.22;;;4.80;99.90;;;;;;4909996;29;20028;-78
2023/12/06 17:14:43;;;;;;;10.50;6.53;;;4.80;99.90;;;;;;4912873;29;20244;-79
2023/12/06 17:17:33;;;;;;;11.13;7.00;;;4.80;99.90;;;;;;4909708;29;20048;-77
2023/12/06 17:19:59;;;;;;;12.98;7.25;;;4.80;99.90;;;;;;4894210;29;20039;-78
2023/12/06 17:22:30;;;;;;;11.38;6.80;;;4.80;99.90;;;;;;4908877;29;20036;-78
2023/12/06 17:25:07;;;;;;;10.43;6.90;;;4.80;99.90;;;;;;4910007;29;20051;-77
2023/12/06 17:27:41;;;;;;;9.50;6.13;;;4.90;99.90;;;;;;4910087;29;20039;-78
2023/12/06 17:30:28;;;;;;;10.18;6.35;;;4.90;99.90;;;;;;4919488;29;20091;-79
2023/12/06 17:33:00;;;;;;;10.60;6.60;;;4.90;99.90;;;;;;4915485;29;20036;-78
2023/12/06 17:35:26;;;;;;;10.25;6.68;;;4.90;99.90;;;;;;4911941;29;20036;-79
2023/12/06 17:37:51;;;;;;;9.30;6.07;;;4.80;99.90;;;;;;4929233;29;20374;-77
2023/12/06 17:40:17;;;;;;;10.10;6.70;;;4.80;99.90;;;;;;4912145;29;20152;-79
2023/12/06 17:42:46;;;;;;;9.10;5.35;;;4.80;99.90;;;;;;4912645;29;20032;-79
2023/12/06 17:45:11;;;;;;;11.15;6.32;;;4.80;99.90;;;;;;4929380;29;20020;-78
2023/12/06 17:47:38;;;;;;;8.68;5.68;;;4.70;99.90;;;;;;4911554;29;20032;-78
2023/12/06 17:50:38;;;;;;;9.10;4.75;;;4.80;99.90;;;;;;4932300;29;20036;-80
2023/12/06 17:53:13;;;;;;;9.30;5.47;;;4.80;99.90;;;;;;4929172;29;20032;-78
2023/12/06 17:55:38;;;;;;;7.43;4.50;;;4.70;99.90;;;;;;4928445;29;20054;-77
2023/12/06 17:58:07;;;;;;;6.43;3.85;;;4.70;99.90;;;;;;4932357;29;20019;-78
2023/12/06 18:00:32;;;;;;;7.82;4.43;;;4.70;99.90;;;;;;4947417;29;20039;-77
2023/12/06 18:02:58;;;;;;;8.48;4.97;;;4.60;99.90;;;;;;4948201;29;20024;-78
2023/12/06 18:05:24;;;;;;;8.52;4.88;;;4.60;99.90;;;;;;4944817;29;20298;-76
2023/12/06 18:07:55;;;;;;;7.35;4.32;;;4.50;99.90;;;;;;4928874;29;20036;-78
2023/12/06 18:10:57;;;;;;;8.77;4.97;;;4.50;99.90;;;;;;4911836;29;20099;-78
2023/12/06 18:13:22;;;;;;;8.05;4.50;;;4.50;99.90;;;;;;4892460;29;20258;-76
2023/12/06 18:15:48;;;;;;;9.02;4.82;;;4.40;99.90;;;;;;4928595;29;20043;-78
2023/12/06 18:18:17;;;;;;;8.40;5.05;;;4.40;99.90;;;;;;4927997;29;20027;-79